createdAt,value
2022-09-23T00:02:11.137Z,96416.78
2022-09-23T00:07:13.242Z,96424.88
2022-09-23T00:12:15.331Z,96420.19
2022-09-23T00:17:17.677Z,96426.28
2022-09-23T00:22:20.367Z,96422.78
2022-09-23T00:27:22.432Z,96422.44
2022-09-23T00:32:24.949Z,96418.47
2022-09-23T00:37:28.946Z,96408.72
2022-09-23T00:42:31.346Z,96401.78
2022-09-23T00:47:56.164Z,96412.06
2022-09-23T00:53:01.775Z,96395.44
2022-09-23T00:58:07.456Z,96412.03
2022-09-23T01:03:10.870Z,96400.09
2022-09-23T01:08:14.685Z,96419.75
2022-09-23T01:13:55.175Z,96412.22
2022-09-23T01:19:23.189Z,96411.38
2022-09-23T01:24:44.677Z,96415.59
2022-09-23T01:29:54.521Z,96391.66
2022-09-23T01:35:30.907Z,96413.59
2022-09-23T01:40:45.879Z,96407.63
2022-09-23T01:45:54.839Z,96409.66
2022-09-23T01:51:06.562Z,96391.34
2022-09-23T01:56:19.783Z,96407.91
2022-09-23T02:01:47.168Z,96373.69
2022-09-23T02:07:03.034Z,96395.56
2022-09-23T02:12:12.971Z,96391.63
2022-09-23T02:17:19.942Z,96402.06
2022-09-23T02:22:28.559Z,96425.84
2022-09-23T02:27:43.217Z,96418.81
2022-09-23T02:33:15.688Z,96425.25
2022-09-23T02:38:24.557Z,96431.69
2022-09-23T02:43:46.287Z,96399.47
2022-09-23T02:49:01.167Z,96411.72
2022-09-23T02:54:07.443Z,96420.41
2022-09-23T02:59:11.813Z,96435.66
2022-09-23T03:04:35.735Z,96443.94
2022-09-23T03:10:00.201Z,96427.84
2022-09-23T03:15:26.478Z,96431.00
2022-09-23T03:20:36.467Z,96424.25
2022-09-23T03:25:43.142Z,96429.63
2022-09-23T03:30:45.622Z,96440.03
2022-09-23T03:36:28.259Z,96435.03
2022-09-23T03:41:39.484Z,96432.41
2022-09-23T03:46:46.819Z,96404.44
2022-09-23T03:51:49.100Z,96426.75
2022-09-23T03:56:51.193Z,96398.72
2022-09-23T04:01:54.253Z,96432.28
2022-09-23T04:06:56.922Z,96418.16
2022-09-23T04:11:59.253Z,96412.72
2022-09-23T04:17:02.984Z,96426.78
2022-09-23T04:22:05.894Z,96414.66
2022-09-23T04:27:08.106Z,96434.53
2022-09-23T04:32:10.420Z,96432.25
2022-09-23T04:37:12.616Z,96423.75
2022-09-23T04:42:14.990Z,96422.25
2022-09-23T04:47:19.526Z,96435.97
2022-09-23T04:52:22.007Z,96412.66
2022-09-23T04:57:24.915Z,96424.53
2022-09-23T05:02:28.566Z,96437.44
2022-09-23T05:07:30.788Z,96452.00
2022-09-23T05:12:33.239Z,96460.47
2022-09-23T05:17:37.533Z,96456.91
2022-09-23T05:22:39.854Z,96450.25
2022-09-23T05:27:42.625Z,96438.63
2022-09-23T05:32:44.914Z,96455.25
2022-09-23T05:37:47.095Z,96447.16
2022-09-23T05:42:50.280Z,96450.66
2022-09-23T05:47:52.518Z,96463.19
2022-09-23T05:52:55.128Z,96467.75
2022-09-23T05:57:57.228Z,96464.50
2022-09-23T06:02:59.626Z,96426.16
2022-09-23T06:08:01.959Z,96414.47
2022-09-23T06:13:04.517Z,96403.06
2022-09-23T06:18:07.076Z,96394.66
2022-09-23T06:23:11.502Z,96410.16
2022-09-23T06:28:14.704Z,96434.66
2022-09-23T06:33:19.334Z,96422.50
2022-09-23T06:38:26.741Z,96434.59
2022-09-23T06:43:29.317Z,96427.72
2022-09-23T06:48:35.434Z,96432.91
2022-09-23T06:53:37.550Z,96417.88
2022-09-23T06:58:40.655Z,96405.56
2022-09-23T07:03:43.491Z,96426.59
2022-09-23T07:08:47.652Z,96417.31
2022-09-23T07:13:49.987Z,96416.28
2022-09-23T07:18:53.668Z,96419.56
2022-09-23T07:23:58.330Z,96419.59
2022-09-23T07:29:05.358Z,96405.53
2022-09-23T07:49:22.356Z,96440.88
2022-09-23T07:54:25.845Z,96441.31
2022-09-23T07:59:28.103Z,96428.34
2022-09-23T08:04:32.038Z,96439.88
2022-09-23T08:09:41.802Z,96429.63
2022-09-23T08:14:44.569Z,96436.78
2022-09-23T08:19:46.684Z,96417.91
2022-09-23T08:24:48.703Z,96433.47
2022-09-23T08:29:50.852Z,96422.66
2022-09-23T08:34:53.065Z,96433.53
2022-09-23T08:39:55.265Z,96452.34
2022-09-23T08:45:02.079Z,96417.41
2022-09-23T08:50:24.842Z,96417.88
2022-09-23T08:55:34.208Z,96434.22
2022-09-23T09:00:46.434Z,96432.84
2022-09-23T09:05:54.250Z,96410.47
2022-09-23T09:10:58.749Z,96423.56
2022-09-23T09:16:13.148Z,96421.00
2022-09-23T09:21:16.168Z,96411.25
2022-09-23T09:26:23.334Z,96416.13
2022-09-23T09:31:33.259Z,96428.44
2022-09-23T09:36:44.152Z,96430.56
2022-09-23T09:41:48.248Z,96425.84
2022-09-23T09:47:01.498Z,96403.41
2022-09-23T09:52:26.240Z,96411.88
2022-09-23T09:57:35.925Z,96403.16
2022-09-23T10:02:40.362Z,96403.19
2022-09-23T10:07:42.612Z,96410.69
2022-09-23T10:12:47.117Z,96428.22
2022-09-23T10:17:52.021Z,96412.09
2022-09-23T10:22:56.439Z,96401.28
2022-09-23T10:27:58.639Z,96405.53
2022-09-23T10:33:01.469Z,96399.41
2022-09-23T10:38:03.681Z,96414.28
2022-09-23T10:43:42.667Z,96424.50
2022-09-23T10:48:55.549Z,96410.88
2022-09-23T10:54:05.246Z,96411.84
2022-09-23T10:59:28.185Z,96413.28
2022-09-23T11:04:30.380Z,96412.69
2022-09-23T11:09:44.557Z,96404.47
2022-09-23T11:15:11.218Z,96382.88
2022-09-23T11:20:21.450Z,96391.88
2022-09-23T11:25:42.379Z,96381.00
2022-09-23T11:30:56.157Z,96384.38
2022-09-23T11:36:10.021Z,96371.16
2022-09-23T11:41:38.745Z,96375.22
2022-09-23T11:46:49.381Z,96341.91
2022-09-23T11:51:54.617Z,96348.47
2022-09-23T11:57:03.768Z,96335.81
2022-09-23T12:02:31.483Z,96314.38
2022-09-23T12:07:56.854Z,96348.78
2022-09-23T12:13:16.378Z,96324.81
2022-09-23T12:18:33.355Z,96349.22
2022-09-23T12:24:18.911Z,96347.09
2022-09-23T12:29:21.818Z,96355.88
2022-09-23T12:34:30.290Z,96352.22
2022-09-23T12:39:41.732Z,96335.16
2022-09-23T12:44:47.429Z,96340.56
2022-09-23T12:49:50.948Z,96331.13
2022-09-23T12:54:58.041Z,96334.47
2022-09-23T13:00:11.650Z,96332.78
2022-09-23T13:05:38.438Z,96312.97
2022-09-23T13:11:00.336Z,96331.38
2022-09-23T13:16:13.577Z,96346.69
2022-09-23T13:21:19.075Z,96342.44
2022-09-23T13:26:21.781Z,96338.13
2022-09-23T13:31:23.860Z,96321.94
2022-09-23T13:36:26.523Z,96355.38
2022-09-23T13:41:28.894Z,96343.84
2022-09-23T13:46:40.674Z,96347.81
2022-09-23T13:51:45.123Z,96359.00
2022-09-23T13:56:49.801Z,96367.53
2022-09-23T14:02:05.128Z,96373.03
2022-09-23T14:07:09.820Z,96368.22
2022-09-23T14:12:12.573Z,96357.34
2022-09-23T14:17:18.699Z,96382.06
2022-09-23T14:22:27.089Z,96372.34
2022-09-23T14:27:32.723Z,96368.78
2022-09-23T14:32:35.189Z,96365.91
2022-09-23T14:37:55.726Z,96370.47
2022-09-23T14:43:03.924Z,96384.47
2022-09-23T14:48:10.044Z,96371.44
2022-09-23T14:53:24.312Z,96391.19
2022-09-23T14:58:30.841Z,96389.88
2022-09-23T15:03:33.180Z,96372.56
2022-09-23T15:08:36.043Z,96379.66
2022-09-23T15:13:41.919Z,96372.16
2022-09-23T15:18:46.427Z,96388.78
2022-09-23T15:23:48.570Z,96397.00
2022-09-23T15:28:56.060Z,96391.44
2022-09-23T15:33:58.605Z,96394.06
2022-09-23T15:39:06.842Z,96388.72
2022-09-23T15:44:18.053Z,96396.75
2022-09-23T15:49:34.621Z,96414.38
2022-09-23T15:54:38.137Z,96408.19
2022-09-23T15:59:41.247Z,96380.84
2022-09-23T16:04:43.367Z,96407.16
2022-09-23T16:09:45.882Z,96406.59
2022-09-23T16:14:48.128Z,96396.34
2022-09-23T16:19:50.512Z,96418.91
2022-09-23T16:24:52.562Z,96401.09
2022-09-23T16:29:54.738Z,96405.19
2022-09-23T16:34:58.729Z,96406.53
2022-09-23T17:28:15.492Z,96485.09
2022-09-23T17:55:08.101Z,96483.31
2022-09-23T18:06:48.463Z,96511.06
2022-09-23T18:48:06.814Z,96530.31
2022-09-23T18:53:12.306Z,96530.06
2022-09-23T18:58:14.572Z,96528.00
2022-09-23T19:03:17.215Z,96536.16
2022-09-23T19:08:19.999Z,96530.22
2022-09-23T19:13:22.077Z,96528.38
2022-09-23T19:18:24.184Z,96547.28
2022-09-23T19:23:29.173Z,96552.53
2022-09-23T19:28:31.713Z,96548.09
2022-09-23T19:33:34.022Z,96530.72
2022-09-23T19:38:39.569Z,96553.03
2022-09-23T19:43:41.749Z,96534.66
2022-09-23T19:48:44.077Z,96556.75
2022-09-23T19:53:46.892Z,96556.06
2022-09-23T19:58:54.389Z,96559.47
2022-09-23T20:03:57.081Z,96539.31
2022-09-23T20:09:01.205Z,96546.88
2022-09-23T20:14:06.552Z,96533.44
2022-09-23T20:19:10.177Z,96550.03
2022-09-23T20:24:48.355Z,96534.16
2022-09-23T20:29:51.715Z,96544.81
2022-09-23T20:34:54.044Z,96548.19
2022-09-23T20:39:56.078Z,96537.31
2022-09-23T20:44:58.604Z,96547.34
2022-09-23T20:50:00.853Z,96562.44
2022-09-23T20:55:03.667Z,96560.41
2022-09-23T21:00:30.825Z,96562.13
2022-09-23T21:05:31.110Z,96570.47
2022-09-23T21:10:36.229Z,96560.22
2022-09-23T21:15:38.539Z,96564.22
2022-09-23T21:20:40.927Z,96561.59
2022-09-23T21:25:44.944Z,96574.66
2022-09-23T21:30:51.193Z,96565.91
2022-09-23T21:35:55.910Z,96576.28
2022-09-23T21:40:59.561Z,96563.38
2022-09-23T21:46:04.957Z,96565.06
2022-09-23T21:51:09.878Z,96569.78
2022-09-23T21:56:21.442Z,96579.31
2022-09-23T22:01:26.952Z,96561.28
2022-09-23T22:06:30.747Z,96589.13
2022-09-23T22:11:51.927Z,96596.28
2022-09-23T22:16:59.296Z,96577.69
2022-09-23T22:22:03.255Z,96551.06
2022-09-23T22:27:07.852Z,96582.88
2022-09-23T22:32:30.485Z,96591.66
2022-09-23T22:37:35.146Z,96585.00
2022-09-23T22:42:37.794Z,96584.56
2022-09-23T22:47:44.209Z,96568.50
2022-09-23T22:52:47.413Z,96576.94
2022-09-23T22:57:51.756Z,96570.22
2022-09-23T23:02:54.717Z,96592.59
2022-09-23T23:07:57.685Z,96575.81
2022-09-23T23:12:59.955Z,96580.63
2022-09-23T23:18:02.005Z,96587.53
2022-09-23T23:23:04.127Z,96590.91
2022-09-23T23:28:06.158Z,96580.13
2022-09-23T23:33:08.457Z,96576.56
2022-09-23T23:38:13.519Z,96577.47
2022-09-23T23:43:15.651Z,96569.59
2022-09-23T23:48:20.961Z,96566.75
2022-09-23T23:53:24.712Z,96567.72
2022-09-23T23:58:28.103Z,96551.25
